Time;durP1;ratioP1;P1;durP2;ratioP2;P2;SDS_P1;SDS_P2;PMS_P1;PMS_P2;Temp;Humidity;BMP_temperature;BMP_pressure;BME280_temperature;BME280_humidity;BME280_pressure;Samples;Min_cycle;Max_cycle;Signal;HPM_P1;HPM_P2
2022/01/05 00:01:46;;;;;;;0.57;0.57;;;8.30;60.00;;;;;;20442;6860;308209;-88
2022/01/05 00:04:11;;;;;;;0.68;0.68;;;8.30;60.10;;;;;;20449;6860;283444;-87
2022/01/05 00:06:37;;;;;;;0.68;0.68;;;8.50;59.40;;;;;;20456;6860;308527;-87
2022/01/05 00:09:02;;;;;;;0.60;0.60;;;8.70;58.80;;;;;;20680;6860;118673;-87
2022/01/05 00:11:28;;;;;;;1.60;0.50;;;8.50;59.30;;;;;;20464;6860;308130;-87
2022/01/05 00:13:56;;;;;;;0.60;0.60;;;8.50;59.30;;;;;;20450;6860;342688;-86
2022/01/05 00:16:19;;;;;;;0.43;0.43;;;8.60;58.60;;;;;;20672;6860;116187;-86
2022/01/05 00:18:45;;;;;;;0.50;0.50;;;8.10;60.10;;;;;;20670;6860;116533;-87
2022/01/05 00:21:11;;;;;;;0.43;0.43;;;8.10;60.10;;;;;;20677;6860;118350;-88
2022/01/05 00:23:37;;;;;;;0.43;0.43;;;7.70;62.10;;;;;;20659;6860;117894;-90
2022/01/05 00:26:04;;;;;;;0.80;0.50;;;7.70;62.10;;;;;;20467;6860;305097;-88
2022/01/05 00:28:28;;;;;;;0.40;0.40;;;7.80;61.60;;;;;;20467;6860;282329;-85
2022/01/05 00:30:54;;;;;;;0.40;0.40;;;8.20;60.60;;;;;;20470;6860;308143;-88
2022/01/05 00:33:20;;;;;;;0.50;0.50;;;8.30;59.70;;;;;;20690;6858;117467;-88
2022/01/05 00:35:46;;;;;;;0.57;0.57;;;8.30;59.70;;;;;;20716;6859;121864;-84
2022/01/05 00:38:11;;;;;;;0.30;0.30;;;8.00;60.50;;;;;;20692;6860;121367;-90
2022/01/05 00:40:38;;;;;;;0.53;0.40;;;7.80;61.50;;;;;;20688;6860;120108;-85
2022/01/05 00:43:03;;;;;;;0.30;0.30;;;7.60;62.30;;;;;;20478;6860;278118;-86
2022/01/05 00:45:29;;;;;;;0.30;0.30;;;7.80;61.80;;;;;;20438;6860;279489;-86
2022/01/05 00:47:55;;;;;;;0.25;0.25;;;8.10;60.60;;;;;;20682;6860;118102;-87
2022/01/05 00:50:20;;;;;;;0.30;0.30;;;8.10;60.60;;;;;;20663;6860;119062;-87
2022/01/05 00:52:46;;;;;;;0.60;0.30;;;7.90;61.40;;;;;;20475;6860;309463;-87
2022/01/05 00:55:11;;;;;;;0.40;0.32;;;8.00;60.60;;;;;;20485;6860;330118;-86
2022/01/05 00:57:38;;;;;;;0.20;0.20;;;8.30;59.80;;;;;;20357;6860;279074;-87
2022/01/05 01:00:06;;;;;;;0.20;0.20;;;8.50;58.90;;;;;;20684;6860;125168;-87
2022/01/05 01:02:31;;;;;;;0.20;0.20;;;8.40;59.20;;;;;;20651;6860;117328;-87
2022/01/05 01:04:57;;;;;;;0.30;0.30;;;8.10;60.30;;;;;;20680;6860;117324;-87
2022/01/05 01:07:22;;;;;;;0.23;0.23;;;7.90;61.20;;;;;;20695;6860;117536;-87
2022/01/05 01:09:49;;;;;;;0.40;0.20;;;7.70;62.10;;;;;;20432;6860;311004;-86
2022/01/05 01:12:15;;;;;;;0.20;0.20;;;7.80;61.30;;;;;;20466;6860;308064;-87
2022/01/05 01:14:43;;;;;;;0.20;0.20;;;8.20;59.60;;;;;;20687;6860;118111;-87
2022/01/05 01:17:08;;;;;;;0.30;0.20;;;8.20;59.80;;;;;;20470;6860;278617;-85
2022/01/05 01:19:34;;;;;;;0.30;0.30;;;8.20;59.20;;;;;;20456;6860;322677;-91
2022/01/05 01:21:59;;;;;;;0.20;0.20;;;8.50;58.30;;;;;;20476;6860;307649;-88
2022/01/05 01:24:25;;;;;;;0.20;0.20;;;8.70;57.40;;;;;;20481;6860;308127;-87
2022/01/05 01:26:52;;;;;;;0.20;0.20;;;8.80;56.80;;;;;;20489;6860;308616;-88
2022/01/05 01:29:17;;;;;;;0.90;0.30;;;9.00;56.10;;;;;;20538;6860;307512;-85
2022/01/05 01:31:43;;;;;;;0.20;0.20;;;9.10;55.70;;;;;;20548;6860;280286;-86
2022/01/05 01:34:10;;;;;;;0.20;0.20;;;9.20;55.90;;;;;;20535;6860;307625;-88
2022/01/05 01:36:37;;;;;;;0.20;0.20;;;9.20;55.40;;;;;;20719;6860;118380;-86
2022/01/05 01:39:05;;;;;;;0.20;0.20;;;8.90;56.20;;;;;;20505;6860;292158;-86
2022/01/05 01:41:29;;;;;;;0.67;0.30;;;8.80;56.20;;;;;;20690;6860;117901;-92
2022/01/05 01:43:55;;;;;;;0.20;0.20;;;8.70;57.20;;;;;;20486;6858;277722;-86
2022/01/05 01:46:20;;;;;;;0.40;0.10;;;8.70;56.90;;;;;;20717;6859;116093;-88
2022/01/05 01:48:46;;;;;;;0.27;0.23;;;8.50;57.50;;;;;;20698;6860;117200;-87
2022/01/05 01:51:11;;;;;;;0.28;0.28;;;8.30;58.40;;;;;;20681;6860;117538;-88
2022/01/05 01:53:37;;;;;;;0.20;0.20;;;8.10;59.40;;;;;;20658;6860;122046;-88
2022/01/05 01:56:05;;;;;;;0.20;0.20;;;7.90;60.00;;;;;;20686;6860;117865;-88
2022/01/05 01:58:31;;;;;;;0.30;0.27;;;7.80;60.90;;;;;;20466;6860;283147;-88
2022/01/05 02:00:57;;;;;;;0.20;0.20;;;8.00;59.60;;;;;;20673;6860;117260;-91
2022/01/05 02:03:23;;;;;;;0.40;0.30;;;8.00;59.60;;;;;;20463;6860;306782;-90
2022/01/05 02:05:49;;;;;;;0.20;0.20;;;8.20;58.70;;;;;;20445;6860;307846;-87
2022/01/05 02:08:14;;;;;;;0.17;0.15;;;8.50;57.50;;;;;;20687;6860;116568;-88
2022/01/05 02:10:40;;;;;;;0.20;0.20;;;8.40;57.90;;;;;;20688;6860;116354;-88
2022/01/05 02:13:06;;;;;;;0.10;0.10;;;8.20;58.90;;;;;;20686;6860;118303;-88
2022/01/05 02:15:31;;;;;;;0.20;0.20;;;8.00;59.80;;;;;;20664;6860;117185;-87
2022/01/05 02:20:29;;;;;;;0.23;0.23;;;8.10;59.20;;;;;;20688;6860;117224;-89
2022/01/05 02:22:56;;;;;;;0.10;0.10;;;8.00;59.90;;;;;;20662;6860;117196;-88
2022/01/05 02:25:25;;;;;;;0.20;0.20;;;7.90;59.80;;;;;;20663;6860;117096;-87
2022/01/05 02:27:50;;;;;;;0.30;0.30;;;7.80;60.30;;;;;;20589;6860;117328;-87
2022/01/05 02:30:20;;;;;;;0.28;0.28;;;7.70;60.90;;;;;;20672;6860;118296;-88
2022/01/05 02:32:45;;;;;;;0.60;0.20;;;7.70;61.50;;;;;;20453;6860;283480;-88
2022/01/05 02:35:12;;;;;;;0.28;0.20;;;7.90;60.40;;;;;;20685;6860;117979;-88
2022/01/05 02:37:45;;;;;;;0.30;0.20;;;8.00;60.30;;;;;;20436;6860;312912;-88
2022/01/05 02:40:11;;;;;;;0.10;0.10;;;8.20;59.20;;;;;;20677;6860;117813;-86
2022/01/05 02:42:37;;;;;;;2.10;0.20;;;8.20;59.50;;;;;;20682;6860;117563;-88
2022/01/05 02:45:04;;;;;;;0.77;0.20;;;8.00;60.00;;;;;;20677;6860;117823;-87
2022/01/05 02:47:29;;;;;;;0.17;0.10;;;7.90;60.90;;;;;;20440;6860;337823;-89
2022/01/05 02:49:59;;;;;;;0.10;0.10;;;8.10;59.60;;;;;;20680;6860;118169;-87
2022/01/05 02:52:25;;;;;;;0.10;0.10;;;8.10;59.70;;;;;;20662;6860;120588;-87
2022/01/05 02:54:50;;;;;;;0.13;0.13;;;8.00;60.20;;;;;;20684;6858;122880;-88
2022/01/05 02:57:16;;;;;;;0.20;0.13;;;7.90;61.10;;;;;;20461;6859;306630;-89
2022/01/05 02:59:41;;;;;;;0.10;0.10;;;8.10;59.80;;;;;;20667;6860;117592;-88
2022/01/05 03:02:07;;;;;;;0.50;0.20;;;8.10;60.00;;;;;;20477;6860;278365;-90
2022/01/05 03:04:34;;;;;;;0.47;0.20;;;8.30;58.60;;;;;;20476;6860;301744;-89
2022/01/05 03:07:00;;;;;;;0.27;0.20;;;8.60;57.90;;;;;;20688;6860;117204;-88
2022/01/05 03:09:25;;;;;;;0.10;0.10;;;8.50;57.90;;;;;;20685;6860;117735;-88
2022/01/05 03:11:51;;;;;;;0.10;0.10;;;8.30;58.70;;;;;;20665;6860;117479;-88
2022/01/05 03:14:17;;;;;;;0.17;0.17;;;8.10;59.70;;;;;;20470;6860;308586;-88
2022/01/05 03:16:42;;;;;;;0.10;0.10;;;8.30;58.70;;;;;;20466;6860;279141;-88
2022/01/05 03:19:09;;;;;;;0.50;0.10;;;8.60;58.00;;;;;;20465;6860;279302;-89
2022/01/05 03:21:36;;;;;;;0.10;0.10;;;8.90;56.90;;;;;;20450;6860;308174;-89
2022/01/05 03:24:01;;;;;;;0.10;0.10;;;9.10;56.50;;;;;;20672;6860;117884;-88
2022/01/05 03:26:27;;;;;;;0.10;0.10;;;8.90;57.40;;;;;;20684;6860;117561;-88
2022/01/05 03:28:53;;;;;;;0.20;0.20;;;8.60;58.70;;;;;;20681;6860;117257;-87
2022/01/05 03:31:18;;;;;;;0.28;0.28;;;8.30;59.90;;;;;;20677;6860;118395;-89
2022/01/05 03:33:45;;;;;;;0.28;0.10;;;8.10;60.90;;;;;;20662;6860;117774;-88
2022/01/05 03:36:10;;;;;;;0.10;0.10;;;7.90;61.70;;;;;;20682;6860;116439;-88
2022/01/05 03:38:37;;;;;;;0.20;0.20;;;7.70;62.30;;;;;;20495;6860;282642;-88
2022/01/05 03:41:03;;;;;;;0.35;0.17;;;7.90;61.50;;;;;;20476;6860;330351;-88
2022/01/05 03:43:28;;;;;;;0.20;0.20;;;8.20;60.20;;;;;;20474;6860;278974;-91
2022/01/05 03:45:54;;;;;;;0.20;0.20;;;8.60;59.20;;;;;;20467;6860;342639;-89
2022/01/05 03:48:19;;;;;;;0.20;0.20;;;8.80;58.60;;;;;;20462;6860;338061;-89
2022/01/05 03:50:45;;;;;;;0.20;0.20;;;8.90;57.90;;;;;;20473;6860;293981;-87
2022/01/05 03:53:11;;;;;;;0.17;0.17;;;8.80;57.90;;;;;;20682;6860;117715;-87
2022/01/05 03:55:37;;;;;;;0.27;0.20;;;8.80;57.90;;;;;;20447;6860;308186;-89
2022/01/05 03:58:05;;;;;;;0.03;0.03;;;8.70;58.30;;;;;;20681;6860;117454;-89
2022/01/05 04:00:31;;;;;;;0.03;0.03;;;8.50;58.70;;;;;;20447;6860;308231;-88
2022/01/05 04:02:59;;;;;;;0.17;0.10;;;8.50;58.50;;;;;;20676;6860;117262;-87
2022/01/05 04:05:25;;;;;;;0.10;0.10;;;8.40;59.00;;;;;;20676;6860;117214;-89
2022/01/05 04:07:50;;;;;;;0.33;0.10;;;8.10;60.00;;;;;;20449;6858;307685;-87
2022/01/05 04:10:18;;;;;;;0.22;0.22;;;8.20;59.80;;;;;;20468;6859;278455;-88
2022/01/05 04:12:43;;;;;;;0.50;0.10;;;8.40;58.50;;;;;;20455;6860;335925;-88
2022/01/05 04:15:09;;;;;;;0.20;0.20;;;8.60;57.80;;;;;;20462;6860;281716;-87
2022/01/05 04:17:35;;;;;;;0.10;0.10;;;8.80;57.40;;;;;;20443;6860;322621;-89
2022/01/05 04:20:00;;;;;;;0.20;0.17;;;8.90;56.70;;;;;;20679;6860;117280;-89
2022/01/05 04:22:25;;;;;;;0.17;0.17;;;8.70;57.20;;;;;;20680;6860;118325;-89
2022/01/05 04:24:52;;;;;;;0.15;0.15;;;8.30;58.40;;;;;;20680;6860;124001;-88
2022/01/05 04:27:17;;;;;;;0.53;0.20;;;8.00;59.60;;;;;;20679;6860;120208;-89
2022/01/05 04:29:43;;;;;;;0.10;0.10;;;7.80;61.10;;;;;;20441;6860;312508;-88
2022/01/05 04:32:10;;;;;;;0.10;0.10;;;7.90;59.90;;;;;;20676;6860;120535;-89
2022/01/05 04:34:36;;;;;;;0.10;0.10;;;7.80;60.00;;;;;;20657;6860;117281;-89
2022/01/05 04:37:01;;;;;;;0.20;0.20;;;7.60;60.60;;;;;;20471;6860;279058;-89
2022/01/05 04:39:27;;;;;;;0.20;0.20;;;7.70;59.60;;;;;;20465;6860;312397;-90
2022/01/05 04:41:52;;;;;;;0.22;0.20;;;8.10;58.30;;;;;;20657;6860;118232;-89
2022/01/05 04:44:18;;;;;;;0.35;0.20;;;8.00;58.60;;;;;;20471;6860;310447;-89
2022/01/05 04:46:44;;;;;;;0.10;0.10;;;8.10;58.20;;;;;;20468;6860;308553;-90
2022/01/05 04:49:09;;;;;;;0.10;0.10;;;8.20;57.30;;;;;;20476;6860;315856;-88
2022/01/05 04:51:37;;;;;;;0.93;0.10;;;8.30;57.10;;;;;;20673;6860;117800;-90
2022/01/05 04:54:02;;;;;;;0.50;0.10;;;8.30;57.10;;;;;;20468;6860;279019;-89
2022/01/05 04:56:29;;;;;;;0.70;0.20;;;8.10;57.60;;;;;;20682;6860;117389;-88
2022/01/05 04:58:58;;;;;;;0.10;0.10;;;7.80;58.60;;;;;;20674;6860;120099;-88
2022/01/05 05:01:24;;;;;;;0.10;0.10;;;7.80;58.60;;;;;;20460;6860;338156;-88
2022/01/05 05:03:49;;;;;;;0.20;0.10;;;7.90;58.20;;;;;;20448;6860;282619;-89
2022/01/05 05:06:15;;;;;;;0.75;0.20;;;8.10;57.10;;;;;;20677;6860;118341;-89
2022/01/05 05:08:40;;;;;;;0.10;0.10;;;8.00;57.60;;;;;;20686;6860;117667;-89
2022/01/05 05:11:06;;;;;;;0.08;0.08;;;7.80;58.60;;;;;;20674;6860;121132;-89
2022/01/05 05:13:31;;;;;;;0.10;0.10;;;7.60;59.70;;;;;;20660;6860;117784;-88
2022/01/05 05:15:57;;;;;;;0.10;0.10;;;7.40;60.50;;;;;;20736;6860;67513;-88
2022/01/05 05:18:23;;;;;;;0.88;0.20;;;7.30;61.20;;;;;;20753;6858;116342;-88
2022/01/05 05:20:48;;;;;;;0.10;0.10;;;7.20;62.20;;;;;;20731;6859;116149;-88
2022/01/05 05:23:14;;;;;;;0.10;0.10;;;7.10;61.80;;;;;;20708;6860;118176;-88
2022/01/05 05:25:39;;;;;;;0.17;0.17;;;7.00;62.10;;;;;;20463;6860;323734;-86
2022/01/05 05:28:06;;;;;;;0.20;0.20;;;7.30;61.30;;;;;;20477;6860;317012;-91
2022/01/05 05:30:30;;;;;;;0.20;0.20;;;7.60;60.00;;;;;;20686;6860;117311;-89
2022/01/05 05:32:57;;;;;;;0.30;0.30;;;7.60;60.10;;;;;;20690;6860;117302;-86
2022/01/05 05:35:22;;;;;;;0.40;0.10;;;7.40;60.90;;;;;;20476;6860;308870;-87
2022/01/05 05:37:48;;;;;;;0.20;0.20;;;7.80;60.10;;;;;;20454;6860;308644;-89
2022/01/05 05:40:13;;;;;;;0.10;0.10;;;7.80;59.50;;;;;;20691;6860;117245;-90
2022/01/05 05:42:40;;;;;;;0.20;0.20;;;7.70;59.70;;;;;;20698;6860;117642;-87
2022/01/05 05:45:06;;;;;;;0.20;0.20;;;7.50;60.60;;;;;;20699;6860;121399;-88
2022/01/05 05:47:33;;;;;;;0.53;0.10;;;7.10;62.20;;;;;;20677;6860;128169;-87
2022/01/05 05:49:58;;;;;;;0.20;0.20;;;7.10;62.20;;;;;;20482;6860;282129;-89
2022/01/05 05:52:24;;;;;;;0.40;0.32;;;7.30;61.30;;;;;;20492;6860;279351;-87
2022/01/05 05:54:49;;;;;;;0.60;0.30;;;7.70;60.00;;;;;;20480;6860;337322;-90
2022/01/05 05:57:15;;;;;;;0.57;0.22;;;8.00;59.40;;;;;;20510;6860;308211;-86
2022/01/05 05:59:42;;;;;;;0.65;0.50;;;8.20;58.50;;;;;;20761;6860;116763;-86
2022/01/05 06:02:07;;;;;;;0.23;0.23;;;8.00;58.80;;;;;;20778;6860;67729;-86
2022/01/05 06:04:33;;;;;;;0.30;0.30;;;7.70;59.90;;;;;;20764;6860;116747;-86
2022/01/05 06:06:59;;;;;;;0.30;0.30;;;7.40;60.90;;;;;;20700;6860;117738;-87
2022/01/05 06:09:24;;;;;;;0.83;0.30;;;7.20;61.80;;;;;;20681;6860;117714;-87
2022/01/05 06:11:50;;;;;;;0.60;0.60;;;7.00;62.40;;;;;;20449;6860;313088;-86
2022/01/05 06:14:15;;;;;;;0.50;0.50;;;7.20;61.30;;;;;;20470;6860;312157;-87
2022/01/05 06:16:43;;;;;;;0.93;0.70;;;7.50;58.50;;;;;;20468;6860;312330;-86
2022/01/05 06:19:06;;;;;;;0.80;0.60;;;7.70;54.70;;;;;;20662;6860;117530;-87
2022/01/05 06:21:32;;;;;;;0.60;0.60;;;7.30;54.50;;;;;;20456;6860;307671;-86
2022/01/05 06:23:57;;;;;;;0.50;0.50;;;7.10;54.50;;;;;;20464;6860;310140;-86
2022/01/05 06:26:24;;;;;;;0.70;0.60;;;7.10;53.80;;;;;;20478;6860;278113;-86
2022/01/05 06:28:50;;;;;;;0.73;0.70;;;7.10;53.80;;;;;;20452;6860;336896;-86
2022/01/05 06:31:16;;;;;;;1.43;0.80;;;7.00;53.70;;;;;;20464;6859;338172;-85
2022/01/05 06:33:42;;;;;;;1.00;0.60;;;7.00;53.90;;;;;;20429;6859;337943;-87
2022/01/05 06:36:07;;;;;;;0.60;0.60;;;7.00;54.50;;;;;;20461;6860;309261;-86
2022/01/05 06:38:33;;;;;;;1.30;0.57;;;7.00;54.30;;;;;;20682;6860;117515;-87
2022/01/05 06:40:59;;;;;;;0.68;0.68;;;6.70;55.30;;;;;;20680;6860;117479;-86
2022/01/05 06:43:24;;;;;;;1.67;0.50;;;6.30;56.60;;;;;;20682;6860;117717;-86
2022/01/05 06:45:51;;;;;;;0.43;0.40;;;6.00;57.80;;;;;;20661;6860;120883;-86
2022/01/05 06:48:17;;;;;;;0.60;0.57;;;5.70;58.90;;;;;;20475;6860;291854;-86
2022/01/05 06:50:42;;;;;;;0.60;0.60;;;5.80;58.70;;;;;;20677;6860;117331;-86
2022/01/05 06:53:08;;;;;;;0.90;0.60;;;5.80;58.70;;;;;;20681;6860;118183;-86
2022/01/05 06:55:33;;;;;;;1.37;1.35;;;5.60;59.40;;;;;;20660;6860;117282;-86
2022/01/05 06:57:59;;;;;;;2.00;0.90;;;5.40;60.00;;;;;;20681;6860;117445;-85
2022/01/05 07:00:26;;;;;;;1.58;0.70;;;5.20;61.40;;;;;;20679;6860;117754;-85
2022/01/05 07:02:52;;;;;;;0.70;0.70;;;5.20;61.50;;;;;;20462;6860;312494;-86
2022/01/05 07:05:19;;;;;;;0.80;0.80;;;5.40;61.50;;;;;;20680;6860;117218;-86
2022/01/05 07:07:44;;;;;;;0.97;0.97;;;5.50;61.40;;;;;;20657;6860;117658;-86
2022/01/05 07:10:10;;;;;;;1.15;1.08;;;5.40;61.50;;;;;;20686;6860;117842;-86
2022/01/05 07:12:36;;;;;;;1.00;1.00;;;5.30;62.10;;;;;;20464;6860;310356;-86
2022/01/05 07:15:01;;;;;;;0.97;0.97;;;5.60;62.00;;;;;;20473;6860;278116;-86
2022/01/05 07:17:27;;;;;;;1.10;1.10;;;6.00;60.50;;;;;;20468;6860;309496;-85
2022/01/05 07:19:52;;;;;;;0.80;0.80;;;6.40;59.80;;;;;;20440;6860;309914;-86
2022/01/05 07:22:19;;;;;;;0.67;0.67;;;6.70;59.10;;;;;;20471;6860;278457;-86
2022/01/05 07:24:45;;;;;;;0.77;0.77;;;6.90;57.80;;;;;;20472;6860;309099;-86
2022/01/05 07:27:10;;;;;;;0.77;0.60;;;7.10;56.90;;;;;;20681;6860;117366;-87
2022/01/05 07:29:36;;;;;;;0.68;0.68;;;6.90;57.40;;;;;;20448;6860;338163;-86
2022/01/05 07:32:02;;;;;;;1.48;0.98;;;7.00;57.20;;;;;;20681;6860;121283;-87
2022/01/05 07:34:27;;;;;;;1.00;1.00;;;6.80;57.60;;;;;;20674;6860;117561;-86
2022/01/05 07:36:54;;;;;;;1.45;0.80;;;6.50;58.50;;;;;;20462;6860;343067;-89
2022/01/05 07:39:21;;;;;;;0.40;0.40;;;6.60;58.20;;;;;;20459;6860;341711;-87
2022/01/05 07:41:47;;;;;;;0.50;0.50;;;6.90;57.20;;;;;;20477;6858;307671;-85
2022/01/05 07:44:12;;;;;;;0.80;0.80;;;7.10;56.00;;;;;;20541;6859;307211;-85
2022/01/05 07:46:38;;;;;;;2.27;0.90;;;7.30;54.80;;;;;;20760;6860;116829;-85
2022/01/05 07:49:05;;;;;;;0.70;0.70;;;7.10;55.40;;;;;;20764;6860;120578;-86
2022/01/05 07:51:29;;;;;;;0.67;0.67;;;6.70;56.50;;;;;;20457;6860;337749;-86
2022/01/05 07:53:54;;;;;;;0.62;0.60;;;6.70;55.10;;;;;;20680;6860;119558;-86
2022/01/05 07:56:20;;;;;;;0.60;0.60;;;6.60;55.60;;;;;;20681;6860;117218;-86
2022/01/05 07:58:47;;;;;;;0.77;0.77;;;6.30;56.60;;;;;;20449;6860;343048;-87
2022/01/05 08:01:18;;;;;;;0.90;0.90;;;6.60;54.00;;;;;;20469;6860;308840;-86
2022/01/05 08:03:41;;;;;;;0.87;0.87;;;6.60;53.90;;;;;;20452;6860;279485;-86
2022/01/05 08:06:06;;;;;;;0.80;0.80;;;6.80;53.30;;;;;;20472;6860;309439;-86
2022/01/05 08:08:34;;;;;;;0.80;0.80;;;7.10;51.10;;;;;;20474;6860;282095;-87
2022/01/05 08:11:00;;;;;;;1.43;1.30;;;7.10;51.10;;;;;;20680;6860;117236;-86
2022/01/05 08:13:26;;;;;;;1.05;1.00;;;6.50;54.40;;;;;;20681;6860;117744;-86
2022/01/05 08:15:52;;;;;;;2.30;1.40;;;6.40;53.60;;;;;;20444;6860;307748;-85
2022/01/05 08:18:18;;;;;;;1.52;1.27;;;6.40;52.90;;;;;;20679;6860;117325;-85
2022/01/05 08:20:44;;;;;;;2.58;1.40;;;6.10;55.50;;;;;;20675;6860;117227;-88
2022/01/05 08:23:09;;;;;;;1.67;1.30;;;6.10;54.90;;;;;;20670;6860;117816;-87
2022/01/05 08:25:35;;;;;;;1.58;1.48;;;5.80;55.60;;;;;;20453;6860;282013;-85
2022/01/05 08:28:00;;;;;;;1.60;1.23;;;6.00;54.50;;;;;;20469;6860;308224;-85
2022/01/05 08:30:26;;;;;;;1.30;1.20;;;6.30;53.70;;;;;;20695;6860;117513;-89
2022/01/05 08:32:52;;;;;;;1.20;1.10;;;6.30;54.20;;;;;;20490;6860;279921;-87
2022/01/05 08:35:17;;;;;;;1.52;1.30;;;6.40;53.50;;;;;;20679;6860;117306;-90
2022/01/05 08:37:44;;;;;;;2.85;1.40;;;6.40;54.10;;;;;;20657;6860;117810;-86
2022/01/05 08:40:11;;;;;;;1.83;1.40;;;6.00;55.70;;;;;;20678;6860;119065;-87
2022/01/05 08:42:39;;;;;;;1.83;1.07;;;6.00;55.60;;;;;;20677;6860;117274;-88
2022/01/05 08:45:05;;;;;;;2.30;1.10;;;5.90;56.50;;;;;;20680;6860;117652;-87
2022/01/05 08:47:31;;;;;;;1.70;1.20;;;5.80;57.40;;;;;;20455;6860;279092;-87
2022/01/05 08:49:56;;;;;;;1.87;1.27;;;6.00;55.20;;;;;;20485;6860;293187;-85
2022/01/05 08:52:22;;;;;;;1.50;1.37;;;6.40;52.40;;;;;;20770;6860;67940;-85
2022/01/05 08:54:47;;;;;;;2.20;1.57;;;6.50;52.70;;;;;;20564;6858;307567;-85
2022/01/05 08:57:13;;;;;;;1.83;1.48;;;6.60;51.10;;;;;;20559;6860;310549;-89
2022/01/05 08:59:38;;;;;;;2.10;1.47;;;6.80;54.00;;;;;;20462;6860;312863;-85
2022/01/05 09:02:06;;;;;;;1.90;1.37;;;7.10;52.00;;;;;;20689;6860;121364;-87
2022/01/05 09:04:31;;;;;;;2.27;1.40;;;7.10;52.80;;;;;;20470;6860;308527;-87
2022/01/05 09:06:57;;;;;;;3.20;1.17;;;7.10;49.90;;;;;;20686;6860;121075;-84
2022/01/05 09:09:24;;;;;;;1.80;1.48;;;6.90;50.70;;;;;;20480;6860;341753;-83
2022/01/05 09:11:48;;;;;;;2.70;1.60;;;6.90;48.90;;;;;;20689;6860;117083;-83
2022/01/05 09:14:14;;;;;;;2.37;1.53;;;6.70;50.00;;;;;;20713;6860;117195;-84
2022/01/05 09:16:40;;;;;;;1.53;1.40;;;6.30;51.10;;;;;;20711;6860;117328;-83
2022/01/05 09:19:06;;;;;;;1.63;1.40;;;6.10;52.50;;;;;;20720;6860;116440;-84
2022/01/05 09:21:31;;;;;;;2.17;1.67;;;6.00;53.40;;;;;;20482;6860;293703;-85
2022/01/05 09:23:58;;;;;;;2.30;1.63;;;6.30;49.90;;;;;;20700;6860;116854;-84
2022/01/05 09:26:26;;;;;;;2.00;1.30;;;6.40;50.80;;;;;;20681;6860;117973;-85
2022/01/05 09:28:52;;;;;;;2.40;1.80;;;6.20;50.90;;;;;;20686;6860;117758;-87
2022/01/05 09:31:19;;;;;;;2.75;1.75;;;6.00;51.80;;;;;;20680;6860;117031;-85
2022/01/05 09:33:44;;;;;;;3.17;1.40;;;5.80;52.00;;;;;;20655;6860;117752;-86
2022/01/05 09:36:16;;;;;;;3.43;1.40;;;5.50;52.60;;;;;;20686;6860;118032;-92
2022/01/05 09:41:56;;;;;;;2.80;1.83;;;5.50;52.60;;;;;;20279;6860;284334;-84
2022/01/05 09:43:52;;;;;;;1.70;1.60;;;5.60;49.90;;;;;;20615;6882;143966;-85
2022/01/05 09:46:22;;;;;;;2.63;1.70;;;5.50;51.30;;;;;;20613;6881;117571;-85
2022/01/05 09:48:58;;;;;;;2.83;1.60;;;5.40;51.40;;;;;;19769;6867;119551;-85
2022/01/05 09:51:23;;;;;;;2.20;1.53;;;5.20;51.70;;;;;;20597;6881;117452;-84
2022/01/05 09:53:49;;;;;;;4.47;1.57;;;5.10;52.10;;;;;;20643;6867;116985;-85
2022/01/05 09:56:15;;;;;;;2.57;1.60;;;5.10;52.60;;;;;;20452;6867;308392;-85
2022/01/05 09:58:42;;;;;;;3.35;2.03;;;5.30;48.10;;;;;;20453;6867;338125;-84
2022/01/05 10:01:06;;;;;;;3.67;2.03;;;5.70;45.90;;;;;;20678;6867;118076;-84
2022/01/05 10:03:31;;;;;;;3.15;1.87;;;5.80;47.40;;;;;;20383;6881;343317;-86
2022/01/05 10:05:57;;;;;;;3.47;1.80;;;5.90;46.10;;;;;;20451;6873;337917;-83
2022/01/05 10:08:23;;;;;;;4.10;1.70;;;6.30;45.10;;;;;;20439;6875;309305;-84
2022/01/05 10:10:48;;;;;;;2.77;1.57;;;6.70;43.90;;;;;;20715;6860;117876;-83
2022/01/05 10:13:15;;;;;;;2.00;1.63;;;6.70;44.90;;;;;;20441;6875;334478;-83
2022/01/05 10:15:44;;;;;;;3.60;2.00;;;7.00;44.40;;;;;;20432;6875;279445;-82
2022/01/05 10:18:18;;;;;;;1.33;1.23;;;7.00;44.40;;;;;;20657;6883;116643;-81
2022/01/05 10:20:54;;;;;;;2.13;1.70;;;7.00;45.60;;;;;;20626;6883;117355;-83
2022/01/05 10:23:33;;;;;;;2.77;1.60;;;6.70;46.70;;;;;;20645;6868;117154;-83
2022/01/05 10:25:58;;;;;;;2.10;1.50;;;6.50;47.80;;;;;;20344;6868;309926;-85
2022/01/05 10:28:24;;;;;;;3.17;1.93;;;6.80;45.50;;;;;;20575;6875;117280;-84
2022/01/05 10:30:50;;;;;;;5.20;1.80;;;6.80;46.20;;;;;;20401;6883;279157;-84
2022/01/05 10:33:16;;;;;;;4.67;1.63;;;6.90;43.60;;;;;;20612;6883;121945;-84
2022/01/05 10:35:43;;;;;;;3.73;1.60;;;6.80;44.20;;;;;;20595;6868;117729;-85
2022/01/05 10:38:13;;;;;;;4.70;2.00;;;6.30;42.20;;;;;;20359;6877;299957;-90
2022/01/05 10:40:36;;;;;;;5.13;1.83;;;6.30;42.20;;;;;;20657;6862;117340;-84
2022/01/05 10:43:05;;;;;;;1.90;1.33;;;5.80;44.70;;;;;;20636;6868;117667;-85
2022/01/05 10:45:51;;;;;;;2.47;1.40;;;5.80;44.70;;;;;;20583;6883;117323;-85
2022/01/05 10:48:16;;;;;;;4.85;2.15;;;5.50;45.80;;;;;;20411;6875;280648;-84
2022/01/05 10:50:42;;;;;;;5.77;1.90;;;5.60;42.40;;;;;;20650;6868;117613;-85
2022/01/05 10:53:09;;;;;;;4.67;1.80;;;5.50;43.50;;;;;;20650;6868;117529;-84
2022/01/05 10:55:40;;;;;;;3.87;1.83;;;5.40;42.10;;;;;;20404;6868;313883;-84
2022/01/05 10:58:05;;;;;;;1.77;1.60;;;5.40;42.10;;;;;;20638;6868;117610;-84
2022/01/05 11:00:57;;;;;;;3.35;1.35;;;5.30;43.00;;;;;;20640;6868;117743;-83
2022/01/05 11:03:27;;;;;;;3.40;2.15;;;5.10;44.70;;;;;;20458;6868;279685;-87
2022/01/05 11:06:06;;;;;;;6.07;1.97;;;5.40;43.20;;;;;;20557;6867;118908;-81
2022/01/05 11:08:52;;;;;;;5.03;1.83;;;5.60;44.00;;;;;;20692;6867;117222;-81
2022/01/05 11:11:36;;;;;;;3.53;1.92;;;5.60;45.10;;;;;;20479;6867;296043;-82
2022/01/05 11:14:11;;;;;;;4.70;2.47;;;5.90;44.20;;;;;;20690;6867;117466;-82
2022/01/05 11:16:43;;;;;;;4.37;1.95;;;6.00;44.60;;;;;;20495;6865;308164;-82
2022/01/05 11:19:15;;;;;;;3.25;1.90;;;6.20;42.30;;;;;;20485;6866;337264;-80
2022/01/05 11:21:44;;;;;;;3.83;2.20;;;6.50;40.60;;;;;;20472;6866;278406;-80
2022/01/05 11:24:09;;;;;;;6.03;2.20;;;6.80;39.80;;;;;;20656;6866;117795;-82
2022/01/05 11:26:35;;;;;;;2.63;1.80;;;6.70;41.40;;;;;;20703;6866;116627;-83
2022/01/05 11:29:03;;;;;;;2.60;1.50;;;6.50;42.60;;;;;;20664;6866;117439;-86
2022/01/05 11:31:27;;;;;;;5.57;2.00;;;6.30;43.80;;;;;;20701;6863;117228;-82
2022/01/05 11:33:53;;;;;;;3.40;1.87;;;6.00;45.20;;;;;;20664;6866;120316;-84
2022/01/05 11:36:20;;;;;;;6.60;2.30;;;6.00;45.10;;;;;;20418;6881;280551;-86
2022/01/05 11:38:46;;;;;;;5.23;2.00;;;6.30;42.40;;;;;;20638;6881;67751;-88
2022/01/05 11:41:11;;;;;;;3.87;2.10;;;6.40;43.50;;;;;;20403;6882;280190;-83
2022/01/05 11:43:37;;;;;;;5.93;2.00;;;6.70;42.30;;;;;;20439;6866;298475;-83
2022/01/05 11:46:19;;;;;;;4.73;2.20;;;7.10;41.30;;;;;;20401;6882;315109;-84
2022/01/05 11:49:05;;;;;;;3.87;2.12;;;7.40;40.30;;;;;;20459;6866;311252;-84
2022/01/05 11:51:45;;;;;;;5.03;1.97;;;7.80;39.90;;;;;;20384;6882;309003;-88
2022/01/05 11:54:15;;;;;;;3.45;1.80;;;8.00;38.90;;;;;;20273;6882;343632;-86
2022/01/05 11:56:45;;;;;;;5.50;1.80;;;8.20;38.70;;;;;;20597;6882;118561;-83
2022/01/05 11:59:33;;;;;;;1.70;1.20;;;8.00;40.60;;;;;;20688;6882;116445;-84
2022/01/05 12:02:02;;;;;;;2.47;1.50;;;7.70;42.00;;;;;;20499;6867;120864;-83
2022/01/05 12:04:27;;;;;;;3.40;1.90;;;7.30;42.60;;;;;;20526;6867;312256;-85
2022/01/05 12:06:55;;;;;;;3.53;1.90;;;7.30;39.80;;;;;;20649;6867;117934;-87
2022/01/05 12:09:22;;;;;;;3.73;1.90;;;7.20;41.00;;;;;;20401;6875;338898;-87
2022/01/05 12:11:47;;;;;;;5.57;2.40;;;7.20;38.60;;;;;;20401;6867;338809;-84
2022/01/05 12:14:19;;;;;;;4.23;2.17;;;7.40;38.30;;;;;;20666;6867;117538;-85
2022/01/05 12:16:52;;;;;;;4.80;2.00;;;7.30;39.80;;;;;;20448;6867;309464;-87
2022/01/05 12:19:18;;;;;;;1.73;1.37;;;7.30;39.70;;;;;;20626;6860;117885;-85
2022/01/05 12:21:46;;;;;;;6.32;2.60;;;7.30;41.40;;;;;;20436;6860;309825;-84
2022/01/05 12:24:12;;;;;;;4.25;2.08;;;7.50;40.20;;;;;;20458;6860;338560;-83
2022/01/05 12:26:37;;;;;;;5.28;2.30;;;7.70;39.70;;;;;;20447;6860;308380;-83
2022/01/05 12:29:04;;;;;;;4.05;2.12;;;7.90;39.10;;;;;;20530;6858;278671;-82
2022/01/05 12:32:00;;;;;;;4.60;2.03;;;8.00;39.10;;;;;;20541;6859;307614;-82
2022/01/05 12:34:55;;;;;;;4.33;1.87;;;8.20;38.30;;;;;;20730;6860;117940;-84
2022/01/05 12:38:04;;;;;;;5.40;2.33;;;7.90;40.30;;;;;;20691;6860;117205;-85
2022/01/05 12:40:35;;;;;;;4.67;1.73;;;7.40;41.70;;;;;;20655;6860;117468;-88
2022/01/05 12:43:08;;;;;;;6.20;2.12;;;7.10;42.60;;;;;;20392;6860;309186;-84
2022/01/05 12:45:53;;;;;;;5.10;1.60;;;7.10;40.40;;;;;;20662;6860;117590;-85
2022/01/05 12:51:14;;;;;;;4.73;1.77;;;7.00;40.10;;;;;;20684;6860;121179;-83
2022/01/05 12:53:36;;;;;;;3.70;1.93;;;6.90;41.30;;;;;;20610;6860;126152;-82
2022/01/05 12:56:02;;;;;;;3.87;1.70;;;6.80;42.60;;;;;;20475;6860;279024;-83